Time;durP1;ratioP1;P1;durP2;ratioP2;P2;SDS_P1;SDS_P2;PMS_P1;PMS_P2;Temp;Humidity;BMP_temperature;BMP_pressure;BME280_temperature;BME280_humidity;BME280_pressure;Samples;Min_cycle;Max_cycle;Signal;HPM_P1;HPM_P2
2022/06/27 00:01:34;;;;;;;9.00;7.80;;;17.60;99.90;;;;;;4992039;28;20180;-90
2022/06/27 00:03:59;;;;;;;10.07;8.35;;;17.50;99.90;;;;;;4976613;28;20073;-90
2022/06/27 00:06:25;;;;;;;13.13;8.88;;;17.50;99.90;;;;;;4993656;28;20066;-90
2022/06/27 00:08:51;;;;;;;10.27;8.30;;;17.50;99.90;;;;;;4996786;28;20046;-90
2022/06/27 00:11:18;;;;;;;10.75;9.10;;;17.50;99.90;;;;;;5017017;28;20072;-91
2022/06/27 00:13:45;;;;;;;10.02;8.18;;;17.50;99.90;;;;;;5015475;28;20294;-90
2022/06/27 00:16:11;;;;;;;10.75;9.02;;;17.50;99.90;;;;;;5019610;28;20394;-89
2022/06/27 00:18:37;;;;;;;11.27;9.57;;;17.50;99.90;;;;;;4996125;28;20044;-90
2022/06/27 00:21:03;;;;;;;12.00;9.38;;;17.50;99.90;;;;;;4974229;28;20477;-91
2022/06/27 00:23:29;;;;;;;10.95;9.68;;;17.50;99.90;;;;;;4992929;28;20061;-91
2022/06/27 00:25:54;;;;;;;11.27;8.98;;;17.50;99.90;;;;;;4984050;28;20072;-91
2022/06/27 00:28:20;;;;;;;11.82;8.55;;;17.50;99.90;;;;;;4990577;28;20042;-90
2022/06/27 00:30:46;;;;;;;11.13;8.25;;;17.50;99.90;;;;;;4993291;28;20042;-90
2022/06/27 00:33:12;;;;;;;9.75;8.75;;;17.50;99.90;;;;;;4991864;28;20037;-91
2022/06/27 00:35:37;;;;;;;11.95;9.80;;;17.50;99.90;;;;;;5012602;28;20413;-91
2022/06/27 00:38:03;;;;;;;11.10;9.75;;;17.50;99.90;;;;;;4988105;28;20041;-91
2022/06/27 00:40:29;;;;;;;10.63;9.45;;;17.50;99.90;;;;;;4999136;28;20041;-90
2022/06/27 00:42:55;;;;;;;12.05;10.50;;;17.40;99.90;;;;;;4998748;28;20410;-91
2022/06/27 00:45:20;;;;;;;12.07;10.27;;;17.40;99.90;;;;;;4992268;28;20507;-91
2022/06/27 00:47:46;;;;;;;12.15;9.80;;;17.30;99.90;;;;;;4980682;28;20174;-91
2022/06/27 00:50:11;;;;;;;12.35;10.60;;;17.20;99.90;;;;;;4993192;28;20120;-91
2022/06/27 00:52:37;;;;;;;12.68;10.93;;;17.30;99.90;;;;;;4973250;28;20041;-90
2022/06/27 00:55:05;;;;;;;12.02;10.73;;;17.30;99.90;;;;;;5014229;28;20057;-91
2022/06/27 00:57:30;;;;;;;11.85;9.95;;;17.30;99.90;;;;;;4985167;28;20045;-90
2022/06/27 00:59:56;;;;;;;12.20;10.52;;;17.30;99.90;;;;;;4994902;28;20141;-90
2022/06/27 01:02:22;;;;;;;12.68;10.32;;;17.30;99.90;;;;;;4980611;28;20037;-91
2022/06/27 01:04:48;;;;;;;11.25;10.05;;;17.30;99.90;;;;;;4988452;28;20052;-91
2022/06/27 01:07:13;;;;;;;11.68;9.95;;;17.30;99.90;;;;;;5015969;28;20130;-91
2022/06/27 01:09:40;;;;;;;12.13;10.75;;;17.20;99.90;;;;;;5005956;28;20048;-91
2022/06/27 01:12:06;;;;;;;11.88;10.02;;;17.20;99.90;;;;;;4978461;28;20038;-91
2022/06/27 01:14:32;;;;;;;11.05;9.35;;;17.20;99.90;;;;;;4997511;28;20049;-90
2022/06/27 01:16:58;;;;;;;12.68;9.82;;;17.20;99.90;;;;;;5002929;28;20049;-91
2022/06/27 01:19:24;;;;;;;11.73;9.90;;;17.20;99.90;;;;;;4981858;28;20277;-91
2022/06/27 01:21:55;;;;;;;11.57;9.98;;;17.20;99.90;;;;;;4992492;28;20402;-92
2022/06/27 01:24:22;;;;;;;;;;;17.20;99.90;;;;;;4994085;28;20183;-91
2022/06/27 01:26:48;;;;;;;12.90;10.52;;;17.10;99.90;;;;;;5024774;28;19921;-92
2022/06/27 01:29:15;;;;;;;11.68;10.48;;;17.10;99.90;;;;;;4984215;28;20068;-91
2022/06/27 01:31:41;;;;;;;12.98;11.57;;;17.10;99.90;;;;;;4989131;28;20516;-91
2022/06/27 01:34:08;;;;;;;13.45;11.80;;;17.00;99.90;;;;;;4997046;28;20041;-91
2022/06/27 01:36:52;;;;;;;12.50;11.20;;;17.10;99.90;;;;;;4977819;28;20053;-91
2022/06/27 01:39:23;;;;;;;12.98;10.68;;;17.10;99.90;;;;;;4992642;28;20042;-92
2022/06/27 01:41:54;;;;;;;12.23;10.73;;;17.00;99.90;;;;;;5001079;28;20045;-92
2022/06/27 01:44:22;;;;;;;13.32;10.70;;;17.10;99.90;;;;;;4982088;28;20045;-90
2022/06/27 01:46:53;;;;;;;12.18;10.68;;;17.10;99.90;;;;;;4980486;28;20042;-91
2022/06/27 01:49:19;;;;;;;;;;;17.10;99.90;;;;;;4995564;28;20042;-90
2022/06/27 01:51:47;;;;;;;12.10;10.63;;;17.00;99.90;;;;;;4974784;28;20286;-90
2022/06/27 01:54:15;;;;;;;12.98;10.55;;;17.00;99.90;;;;;;5013880;28;20049;-90
2022/06/27 01:56:42;;;;;;;12.70;10.73;;;17.00;99.90;;;;;;5002047;28;20060;-91
2022/06/27 01:59:08;;;;;;;13.90;10.75;;;17.10;99.90;;;;;;5011999;28;20060;-90
2022/06/27 02:01:35;;;;;;;12.52;10.05;;;17.10;99.90;;;;;;4995180;28;20146;-91
2022/06/27 02:04:01;;;;;;;12.65;10.60;;;17.10;99.90;;;;;;5003123;28;20498;-90
2022/06/27 02:06:29;;;;;;;13.15;10.77;;;17.10;99.90;;;;;;4995827;28;20072;-90
2022/06/27 02:08:56;;;;;;;13.25;10.75;;;17.10;99.90;;;;;;5007843;28;20188;-89
2022/06/27 02:11:22;;;;;;;12.40;10.27;;;17.10;99.90;;;;;;4996203;28;20045;-90
2022/06/27 02:13:48;;;;;;;12.38;10.00;;;17.10;99.90;;;;;;4998080;28;20546;-89
2022/06/27 02:16:16;;;;;;;11.73;10.07;;;17.10;99.90;;;;;;5010838;28;20124;-90
2022/06/27 02:18:43;;;;;;;12.43;9.82;;;17.10;99.90;;;;;;5010811;28;20049;-90
2022/06/27 02:21:16;;;;;;;12.55;11.23;;;17.10;99.90;;;;;;5010318;28;20179;-90
2022/06/27 02:23:42;;;;;;;11.98;9.57;;;17.10;99.90;;;;;;4999619;28;20494;-90
2022/06/27 02:26:10;;;;;;;12.48;10.02;;;17.10;99.90;;;;;;4996172;28;20049;-90
2022/06/27 02:28:36;;;;;;;12.82;9.75;;;17.10;99.90;;;;;;4988927;28;20059;-90
2022/06/27 02:31:03;;;;;;;12.82;10.85;;;17.10;99.90;;;;;;5008370;28;20353;-89
2022/06/27 02:33:37;;;;;;;11.98;10.77;;;17.20;99.90;;;;;;4996608;28;20099;-90
2022/06/27 02:36:04;;;;;;;12.57;11.00;;;17.20;99.90;;;;;;4982389;28;20068;-90
2022/06/27 02:38:31;;;;;;;13.05;10.88;;;17.20;99.90;;;;;;4979945;28;20045;-91
2022/06/27 02:40:58;;;;;;;12.27;10.93;;;17.20;99.90;;;;;;4993809;28;20100;-90
2022/06/27 02:43:27;;;;;;;12.30;11.00;;;17.20;99.90;;;;;;4993887;28;20116;-90
2022/06/27 02:45:54;;;;;;;13.40;12.00;;;17.10;99.90;;;;;;4985671;28;20057;-89
2022/06/27 02:48:22;;;;;;;13.13;11.73;;;17.20;99.90;;;;;;5013796;28;20044;-90
2022/06/27 02:50:52;;;;;;;13.20;11.75;;;17.10;99.90;;;;;;4999553;28;20041;-91
2022/06/27 02:53:22;;;;;;;15.10;13.50;;;17.20;99.90;;;;;;5014394;28;20390;-89
2022/06/27 02:55:50;;;;;;;15.50;13.90;;;17.20;99.90;;;;;;5000655;28;20048;-89
2022/06/27 02:58:23;;;;;;;15.48;13.88;;;17.20;99.90;;;;;;4993825;28;20364;-87
2022/06/27 03:00:51;;;;;;;16.45;14.75;;;17.20;99.90;;;;;;4972694;28;20061;-88
2022/06/27 03:03:17;;;;;;;15.27;13.63;;;17.20;99.90;;;;;;4982242;28;20117;-89
2022/06/27 03:06:10;;;;;;;16.27;14.30;;;17.20;99.90;;;;;;5011630;28;20059;-90
2022/06/27 03:08:42;;;;;;;16.60;14.90;;;17.10;99.90;;;;;;4993644;28;20103;-88
2022/06/27 03:11:11;;;;;;;16.25;14.55;;;17.10;99.90;;;;;;4977174;28;20050;-89
2022/06/27 03:13:37;;;;;;;17.20;14.88;;;17.10;99.90;;;;;;5019307;28;20050;-89
2022/06/27 03:16:02;;;;;;;16.75;15.07;;;17.10;99.90;;;;;;4977059;28;20403;-88
2022/06/27 03:18:29;;;;;;;16.85;15.15;;;17.10;99.90;;;;;;4993098;28;20501;-88
2022/06/27 03:20:54;;;;;;;17.17;14.73;;;17.10;99.90;;;;;;4992776;28;20050;-88
2022/06/27 03:23:20;;;;;;;17.65;15.90;;;17.10;99.90;;;;;;5000717;28;20057;-88
2022/06/27 03:25:46;;;;;;;18.52;16.73;;;17.00;99.90;;;;;;4996391;28;20128;-88
2022/06/27 03:28:11;;;;;;;17.00;15.23;;;17.10;99.90;;;;;;5015494;28;20036;-90
2022/06/27 03:30:37;;;;;;;17.02;15.25;;;17.00;99.90;;;;;;4994253;28;20045;-88
2022/06/27 03:33:03;;;;;;;16.80;15.07;;;17.10;99.90;;;;;;4978184;28;20077;-88
2022/06/27 03:35:29;;;;;;;16.83;15.13;;;17.10;99.90;;;;;;5009254;28;20685;-88
2022/06/27 03:37:55;;;;;;;17.73;15.85;;;17.10;99.90;;;;;;5014415;28;20057;-88
2022/06/27 03:40:20;;;;;;;16.25;14.55;;;17.10;99.90;;;;;;4994053;28;20371;-88
2022/06/27 03:42:46;;;;;;;17.23;15.50;;;17.10;99.90;;;;;;5001859;28;20056;-88
2022/06/27 03:45:12;;;;;;;18.10;16.30;;;17.10;99.90;;;;;;4999911;28;20088;-88
2022/06/27 03:47:51;;;;;;;18.55;16.70;;;17.10;99.90;;;;;;4991988;28;20053;-89
2022/06/27 03:50:17;;;;;;;19.13;17.20;;;17.10;99.90;;;;;;5010133;28;20502;-91
2022/06/27 03:52:43;;;;;;;18.92;16.95;;;17.10;99.90;;;;;;4997421;28;20075;-92
2022/06/27 03:55:09;;;;;;;19.17;17.27;;;17.10;99.90;;;;;;5003079;28;20136;-93
2022/06/27 03:57:45;;;;;;;18.23;16.35;;;17.10;99.90;;;;;;4993696;28;20088;-92
2022/06/27 04:00:12;;;;;;;16.52;14.80;;;17.00;99.90;;;;;;4980305;28;20413;-92
2022/06/27 04:02:38;;;;;;;15.02;12.77;;;17.00;99.90;;;;;;4999706;28;20041;-90
2022/06/27 04:05:04;;;;;;;14.38;12.85;;;17.00;99.90;;;;;;4997942;28;20049;-88
2022/06/27 04:07:30;;;;;;;12.23;10.93;;;17.00;99.90;;;;;;5003307;28;20383;-89
2022/06/27 04:09:56;;;;;;;12.63;11.27;;;16.90;99.90;;;;;;4992761;28;20037;-89
2022/06/27 04:12:22;;;;;;;13.07;11.30;;;16.90;99.90;;;;;;5011872;28;20113;-89
2022/06/27 04:14:48;;;;;;;11.50;9.88;;;16.90;99.90;;;;;;5014467;28;20394;-87
2022/06/27 04:17:13;;;;;;;13.00;10.15;;;16.90;99.90;;;;;;5018742;28;20088;-87
2022/06/27 04:19:39;;;;;;;12.32;9.70;;;16.80;99.90;;;;;;4994032;28;20057;-87
2022/06/27 04:22:05;;;;;;;10.35;9.00;;;16.80;99.90;;;;;;4987384;28;20061;-87
2022/06/27 04:24:31;;;;;;;11.77;9.43;;;16.80;99.90;;;;;;5015614;28;20100;-87
2022/06/27 04:26:57;;;;;;;12.02;9.25;;;16.70;99.90;;;;;;5018444;28;20510;-87
2022/06/27 04:29:23;;;;;;;11.55;9.23;;;16.70;99.90;;;;;;5000489;28;20057;-87
2022/06/27 04:31:49;;;;;;;11.30;10.10;;;16.70;99.90;;;;;;5011556;28;20121;-88
2022/06/27 04:34:15;;;;;;;11.77;9.98;;;16.70;99.90;;;;;;5021599;28;20470;-86
2022/06/27 04:36:41;;;;;;;12.32;10.45;;;16.70;99.90;;;;;;5026047;28;20391;-88
2022/06/27 04:39:07;;;;;;;11.65;10.15;;;16.60;99.90;;;;;;5020547;28;20092;-86
2022/06/27 04:41:33;;;;;;;12.00;9.90;;;16.70;99.90;;;;;;5013043;28;20050;-87
2022/06/27 04:43:59;;;;;;;11.32;10.05;;;16.70;99.90;;;;;;5021921;28;20041;-86
2022/06/27 04:46:25;;;;;;;11.98;9.73;;;16.60;99.90;;;;;;4990658;28;20045;-88
2022/06/27 04:48:51;;;;;;;12.70;10.63;;;16.70;99.90;;;;;;5013515;28;20037;-88
2022/06/27 04:51:18;;;;;;;11.05;9.80;;;16.60;99.90;;;;;;5023250;28;20387;-86
2022/06/27 04:53:44;;;;;;;11.43;10.23;;;16.70;99.90;;;;;;5018537;28;20103;-86
2022/06/27 04:56:11;;;;;;;11.98;10.18;;;16.60;99.90;;;;;;4999261;28;20629;-87
2022/06/27 04:58:37;;;;;;;12.40;10.82;;;16.70;99.90;;;;;;5001876;28;20053;-88
2022/06/27 05:01:03;;;;;;;11.30;10.05;;;16.70;99.90;;;;;;4990745;28;20054;-90
2022/06/27 05:03:29;;;;;;;11.00;9.77;;;16.70;99.90;;;;;;4989306;28;20042;-86
2022/06/27 05:05:55;;;;;;;11.90;9.40;;;16.70;99.90;;;;;;4993641;28;20053;-88
2022/06/27 05:08:21;;;;;;;10.88;9.00;;;16.70;99.90;;;;;;4993929;28;21329;-86
2022/06/27 05:10:47;;;;;;;10.57;7.78;;;16.70;99.90;;;;;;4979368;28;20111;-89
2022/06/27 05:13:13;;;;;;;9.80;6.85;;;16.70;99.90;;;;;;5009605;28;20053;-91
2022/06/27 05:15:39;;;;;;;9.93;6.43;;;16.70;99.90;;;;;;5004239;28;20038;-90
2022/06/27 05:18:06;;;;;;;8.70;6.82;;;16.70;99.90;;;;;;4972889;28;20551;-88
2022/06/27 05:20:32;;;;;;;8.40;6.20;;;16.70;99.90;;;;;;4987829;28;20070;-88
2022/06/27 05:23:00;;;;;;;9.40;7.05;;;16.60;99.90;;;;;;5007744;28;20080;-88
2022/06/27 05:25:26;;;;;;;8.38;6.43;;;16.70;99.90;;;;;;5011237;28;20041;-88
2022/06/27 05:27:52;;;;;;;8.93;5.85;;;16.70;99.90;;;;;;4968374;28;20118;-90
2022/06/27 05:30:17;;;;;;;9.38;6.80;;;16.70;99.90;;;;;;4987094;28;20091;-89
2022/06/27 05:32:43;;;;;;;8.85;6.63;;;16.70;99.90;;;;;;5000015;28;20422;-88
2022/06/27 05:35:10;;;;;;;8.88;6.72;;;16.70;99.90;;;;;;5003748;28;20049;-88
2022/06/27 05:37:38;;;;;;;8.50;7.05;;;16.70;99.90;;;;;;5007283;28;20116;-87
2022/06/27 05:40:07;;;;;;;9.48;6.70;;;16.80;99.90;;;;;;5001097;28;20056;-87
2022/06/27 05:42:34;;;;;;;8.90;6.40;;;16.80;99.90;;;;;;4968756;28;20070;-88
2022/06/27 05:45:01;;;;;;;8.30;6.50;;;16.90;99.90;;;;;;4988210;28;20480;-87
2022/06/27 05:47:27;;;;;;;8.38;6.35;;;17.00;99.90;;;;;;4987756;28;20513;-88
2022/06/27 05:49:53;;;;;;;8.55;6.20;;;17.00;99.90;;;;;;4990517;28;20052;-88
2022/06/27 05:52:18;;;;;;;9.57;6.03;;;17.00;99.90;;;;;;4989606;28;20038;-88
2022/06/27 05:54:44;;;;;;;7.70;5.57;;;17.10;99.90;;;;;;4981447;28;20042;-88
2022/06/27 05:57:11;;;;;;;7.55;5.65;;;17.10;99.90;;;;;;4984718;28;20411;-88
2022/06/27 05:59:37;;;;;;;7.60;5.32;;;17.20;99.90;;;;;;5002851;28;20076;-89
2022/06/27 06:02:03;;;;;;;8.18;4.55;;;17.20;99.90;;;;;;5010908;28;20168;-88
2022/06/27 06:04:30;;;;;;;6.63;4.70;;;17.20;99.90;;;;;;5008929;28;20056;-88
2022/06/27 06:06:56;;;;;;;7.38;4.80;;;17.10;99.90;;;;;;4994052;28;20042;-89
2022/06/27 06:09:22;;;;;;;8.32;5.00;;;17.10;99.90;;;;;;4985780;28;20041;-87
2022/06/27 06:11:49;;;;;;;7.15;4.65;;;17.10;99.90;;;;;;5001775;28;20061;-88
2022/06/27 06:14:16;;;;;;;7.50;5.00;;;17.10;99.90;;;;;;5006199;28;20042;-87
2022/06/27 06:16:42;;;;;;;7.55;4.85;;;17.10;99.90;;;;;;4984904;28;20057;-88
2022/06/27 06:19:09;;;;;;;7.40;5.18;;;17.10;99.90;;;;;;4988378;28;20818;-87
2022/06/27 06:21:35;;;;;;;8.20;5.40;;;17.00;99.90;;;;;;5004405;28;20049;-88
2022/06/27 06:24:02;;;;;;;7.65;5.30;;;17.00;99.90;;;;;;5004909;28;20042;-87
2022/06/27 06:26:28;;;;;;;8.50;5.63;;;16.90;99.90;;;;;;5004647;28;20052;-88
2022/06/27 06:28:54;;;;;;;7.65;5.82;;;16.90;99.90;;;;;;5003356;28;20128;-87
2022/06/27 06:31:23;;;;;;;7.80;5.25;;;16.80;99.90;;;;;;4981279;28;20128;-87
2022/06/27 06:33:50;;;;;;;8.50;5.82;;;17.00;99.90;;;;;;4978143;28;20042;-87
2022/06/27 06:36:18;;;;;;;8.35;5.30;;;17.00;99.90;;;;;;4991405;28;20057;-88
2022/06/27 06:38:44;;;;;;;8.57;5.80;;;17.00;99.90;;;;;;4978664;28;20088;-89
2022/06/27 06:41:10;;;;;;;8.30;5.70;;;17.00;99.90;;;;;;4994096;28;20134;-87
2022/06/27 06:43:36;;;;;;;8.45;5.90;;;17.00;99.90;;;;;;4998282;28;20180;-89
2022/06/27 06:46:02;;;;;;;8.20;6.05;;;17.10;99.90;;;;;;4980908;28;20092;-88
2022/06/27 06:48:27;;;;;;;8.57;5.90;;;17.10;99.90;;;;;;5017260;28;20540;-89
2022/06/27 06:50:54;;;;;;;9.02;6.57;;;17.10;99.90;;;;;;5011401;28;20046;-88
2022/06/27 06:53:21;;;;;;;7.88;5.70;;;17.10;99.90;;;;;;5009367;28;20042;-89
2022/06/27 06:55:47;;;;;;;8.18;5.80;;;17.20;99.90;;;;;;4988528;28;20041;-87
2022/06/27 06:58:13;;;;;;;8.20;5.80;;;17.10;99.90;;;;;;4972436;28;20038;-90
2022/06/27 07:00:39;;;;;;;9.93;6.35;;;17.20;99.90;;;;;;4969770;28;20045;-87
2022/06/27 07:03:06;;;;;;;8.93;6.43;;;17.10;99.90;;;;;;4991838;28;20049;-87
2022/06/27 07:05:32;;;;;;;8.85;7.05;;;17.10;99.90;;;;;;5005554;28;20128;-87
2022/06/27 07:08:00;;;;;;;8.10;6.03;;;17.10;99.90;;;;;;4985132;28;20181;-87
2022/06/27 07:10:26;;;;;;;8.77;6.63;;;17.10;99.90;;;;;;4981792;28;20037;-86
2022/06/27 07:12:52;;;;;;;8.95;6.55;;;17.10;99.90;;;;;;4999429;28;20045;-88
2022/06/27 07:15:17;;;;;;;8.85;7.00;;;17.00;99.90;;;;;;4974084;28;20041;-89
2022/06/27 07:17:46;;;;;;;9.30;6.63;;;17.00;99.90;;;;;;4983490;28;20121;-90
2022/06/27 07:20:13;;;;;;;9.77;7.07;;;17.10;99.90;;;;;;5003530;28;20053;-90
2022/06/27 07:22:40;;;;;;;9.98;7.18;;;17.00;99.90;;;;;;4981815;28;20135;-91
2022/06/27 07:25:07;;;;;;;9.45;7.43;;;17.00;99.90;;;;;;5007707;28;20042;-89
2022/06/27 07:27:34;;;;;;;9.38;7.45;;;17.00;99.90;;;;;;4970338;28;20050;-91
2022/06/27 07:30:01;;;;;;;10.82;8.02;;;17.00;99.90;;;;;;5007971;28;20038;-91
2022/06/27 07:32:27;;;;;;;9.32;7.35;;;17.00;99.90;;;;;;5011200;28;20038;-89
2022/06/27 07:34:54;;;;;;;9.13;7.15;;;17.00;99.90;;;;;;4992158;28;20057;-89
2022/06/27 07:37:20;;;;;;;11.07;8.00;;;17.10;99.90;;;;;;5024214;28;20046;-89
2022/06/27 07:39:47;;;;;;;10.35;8.02;;;17.10;99.90;;;;;;5000870;28;20053;-90
2022/06/27 07:42:12;;;;;;;9.60;7.35;;;17.10;99.90;;;;;;4990027;28;20100;-90
2022/06/27 07:44:38;;;;;;;9.13;7.03;;;17.10;99.90;;;;;;5019752;28;20045;-89
2022/06/27 07:47:04;;;;;;;9.82;6.95;;;17.10;99.90;;;;;;4984572;28;20349;-89
2022/06/27 07:49:31;;;;;;;9.00;6.65;;;17.20;99.90;;;;;;5008470;28;20041;-89
2022/06/27 07:51:57;;;;;;;8.13;6.20;;;17.20;99.90;;;;;;4986461;28;20121;-90
2022/06/27 07:54:23;;;;;;;8.35;6.30;;;17.20;99.90;;;;;;5002817;28;20042;-88
2022/06/27 07:56:51;;;;;;;9.07;6.18;;;17.20;99.90;;;;;;4980246;28;20193;-91
2022/06/27 07:59:17;;;;;;;8.48;6.32;;;17.20;99.90;;;;;;5001000;28;20441;-90
2022/06/27 08:01:43;;;;;;;9.52;6.90;;;17.30;99.90;;;;;;4997971;28;20037;-90
2022/06/27 08:04:11;;;;;;;8.25;6.60;;;17.40;99.90;;;;;;4969087;28;20476;-90
2022/06/27 08:06:37;;;;;;;9.88;6.63;;;17.40;99.90;;;;;;4987191;28;20046;-91
2022/06/27 08:09:05;;;;;;;8.35;6.35;;;17.50;99.90;;;;;;4984774;28;20050;-92
2022/06/27 08:11:40;;;;;;;8.65;6.25;;;17.50;99.90;;;;;;4988191;28;20042;-92
2022/06/27 08:14:09;;;;;;;9.00;6.15;;;17.60;99.90;;;;;;5008351;28;20038;-89
2022/06/27 08:16:36;;;;;;;7.68;5.68;;;17.60;99.90;;;;;;5006501;28;20041;-90
2022/06/27 08:19:03;;;;;;;8.52;6.30;;;17.70;99.90;;;;;;5007222;28;20046;-88
2022/06/27 08:21:30;;;;;;;8.07;5.68;;;17.80;99.90;;;;;;4972123;28;20049;-90
2022/06/27 08:24:00;;;;;;;8.43;6.60;;;17.90;99.90;;;;;;4985253;28;20065;-89
2022/06/27 08:26:28;;;;;;;10.45;6.70;;;18.00;99.90;;;;;;4999750;28;20084;-93
2022/06/27 08:28:53;;;;;;;8.43;5.95;;;18.10;99.90;;;;;;4985346;28;20057;-91
2022/06/27 08:31:20;;;;;;;8.93;5.97;;;18.20;99.90;;;;;;4991856;28;20050;-91
2022/06/27 08:33:49;;;;;;;8.32;5.80;;;18.30;99.90;;;;;;5008328;28;20046;-90
2022/06/27 08:36:16;;;;;;;7.90;6.00;;;18.40;99.90;;;;;;4991435;28;20128;-89
2022/06/27 08:38:42;;;;;;;8.10;5.47;;;18.40;99.90;;;;;;4987807;28;20128;-89
2022/06/27 08:41:10;;;;;;;7.85;5.60;;;18.30;99.90;;;;;;4973612;28;20042;-89
2022/06/27 08:43:36;;;;;;;8.43;5.95;;;18.40;99.90;;;;;;5008908;28;20125;-90
2022/06/27 08:46:03;;;;;;;9.50;6.22;;;18.30;99.90;;;;;;4987617;28;20124;-90
2022/06/27 08:48:29;;;;;;;7.65;5.63;;;18.30;99.90;;;;;;4987073;28;20050;-90
2022/06/27 08:50:59;;;;;;;8.45;5.88;;;18.30;99.90;;;;;;4995982;28;20044;-90
2022/06/27 08:53:26;;;;;;;8.82;6.53;;;18.30;99.90;;;;;;4987019;28;20042;-90
2022/06/27 08:55:52;;;;;;;9.88;6.53;;;18.30;99.90;;;;;;5005446;28;20095;-92
2022/06/27 08:58:19;;;;;;;7.90;6.13;;;18.40;99.90;;;;;;5004706;28;20049;-90
2022/06/27 09:00:45;;;;;;;8.30;6.15;;;18.40;99.90;;;;;;4987059;28;20054;-88
2022/06/27 09:03:21;;;;;;;8.38;5.75;;;18.50;99.90;;;;;;4974108;28;20488;-87
2022/06/27 09:05:59;;;;;;;8.77;5.53;;;18.70;99.90;;;;;;5015862;28;20041;-92
2022/06/27 09:08:28;;;;;;;7.20;5.55;;;18.80;99.90;;;;;;5023849;28;20721;-91
2022/06/27 09:10:56;;;;;;;8.60;5.20;;;18.80;99.90;;;;;;5006447;28;20037;-90
2022/06/27 09:13:23;;;;;;;7.85;5.35;;;18.80;99.90;;;;;;5004345;28;20049;-91
2022/06/27 09:15:59;;;;;;;7.97;4.40;;;18.80;99.90;;;;;;5010484;28;20050;-91
2022/06/27 09:18:36;;;;;;;6.53;4.10;;;18.90;99.90;;;;;;5012114;28;20495;-91
2022/06/27 09:21:09;;;;;;;7.07;4.47;;;18.90;99.90;;;;;;4993824;28;20073;-90
2022/06/27 09:23:49;;;;;;;6.45;3.67;;;18.80;99.90;;;;;;4976730;28;20081;-91
2022/06/27 09:26:32;;;;;;;7.47;4.35;;;18.70;99.90;;;;;;4999405;28;20470;-91
2022/06/27 09:29:03;;;;;;;7.70;5.07;;;18.70;99.90;;;;;;5011237;28;20048;-91
2022/06/27 09:31:48;;;;;;;7.65;5.00;;;18.60;99.90;;;;;;5019911;28;20091;-92
2022/06/27 09:34:24;;;;;;;8.20;4.60;;;18.50;99.90;;;;;;5018976;28;20052;-91
2022/06/27 09:36:58;;;;;;;6.82;4.38;;;18.50;99.90;;;;;;4977405;28;20057;-92
2022/06/27 09:39:28;;;;;;;8.45;4.57;;;18.40;99.90;;;;;;4977089;28;20058;-90
2022/06/27 09:42:00;;;;;;;7.93;4.60;;;18.40;99.90;;;;;;5008920;28;20069;-90
2022/06/27 09:44:27;;;;;;;7.55;4.63;;;18.50;99.90;;;;;;4994037;28;20073;-90
2022/06/27 09:47:11;;;;;;;6.72;4.13;;;18.40;99.90;;;;;;5010184;28;20042;-89
2022/06/27 09:49:40;;;;;;;7.57;5.10;;;18.50;99.90;;;;;;5012374;28;20454;-91
2022/06/27 09:52:12;;;;;;;8.05;4.40;;;18.50;99.90;;;;;;4991283;28;20052;-90
2022/06/27 09:54:40;;;;;;;6.78;4.40;;;18.50;99.90;;;;;;4976623;28;20056;-91
2022/06/27 09:57:07;;;;;;;7.10;3.95;;;18.50;99.90;;;;;;4994697;28;20406;-92
2022/06/27 09:59:34;;;;;;;7.15;4.00;;;18.50;99.90;;;;;;4993562;28;20050;-90
2022/06/27 10:02:01;;;;;;;6.50;3.70;;;18.50;99.90;;;;;;4999170;28;20085;-93
2022/06/27 10:04:28;;;;;;;6.38;3.60;;;18.50;99.90;;;;;;5005231;28;20402;-95
2022/06/27 10:06:58;;;;;;;6.53;4.07;;;18.50;99.90;;;;;;4994262;28;20096;-93
2022/06/27 10:09:25;;;;;;;7.03;4.10;;;18.60;99.90;;;;;;5014158;28;20122;-92
2022/06/27 10:12:19;;;;;;;6.47;4.03;;;18.60;99.90;;;;;;4992730;28;20046;-93
2022/06/27 10:14:45;;;;;;;6.60;3.92;;;18.60;99.90;;;;;;5011355;28;20086;-93
2022/06/27 10:17:15;;;;;;;5.93;4.00;;;18.70;99.90;;;;;;5012172;28;20070;-94
2022/06/27 10:20:00;;;;;;;7.50;4.00;;;18.70;99.90;;;;;;4994655;28;20093;-95
2022/06/27 10:22:26;;;;;;;6.30;3.55;;;18.80;99.90;;;;;;5005280;28;20044;-94
2022/06/27 10:24:52;;;;;;;6.15;3.88;;;18.70;99.90;;;;;;5011018;28;20103;-94
2022/06/27 10:27:30;;;;;;;6.15;3.85;;;18.70;99.90;;;;;;4992581;28;20430;-91
2022/06/27 10:29:59;;;;;;;6.95;3.50;;;18.70;99.90;;;;;;5003782;28;20050;-91
2022/06/27 10:32:44;;;;;;;5.93;3.65;;;18.70;99.90;;;;;;5003781;28;20036;-91
2022/06/27 10:35:11;;;;;;;7.05;4.00;;;18.80;99.90;;;;;;5009175;28;20060;-88
2022/06/27 10:37:39;;;;;;;6.47;3.33;;;18.80;99.90;;;;;;5001801;28;20046;-90
2022/06/27 10:40:20;;;;;;;6.35;3.30;;;18.90;99.90;;;;;;4991215;28;20161;-91
2022/06/27 10:42:53;;;;;;;7.05;3.22;;;18.90;99.90;;;;;;4978691;28;20451;-92
2022/06/27 10:45:19;;;;;;;6.68;3.42;;;18.90;99.90;;;;;;5010057;28;20045;-91
2022/06/27 10:47:45;;;;;;;5.90;2.92;;;18.90;99.90;;;;;;4988838;28;21509;-95
2022/06/27 10:50:13;;;;;;;5.90;2.90;;;19.10;99.90;;;;;;4994364;28;20044;-93
2022/06/27 10:52:38;;;;;;;5.85;3.00;;;19.10;99.90;;;;;;5011013;28;20410;-96
2022/06/27 10:55:29;;;;;;;5.43;2.95;;;19.10;99.90;;;;;;5010149;28;20042;-94
2022/06/27 10:57:56;;;;;;;6.55;4.00;;;19.10;99.90;;;;;;5011832;28;20053;-94
2022/06/27 11:00:42;;;;;;;6.15;4.00;;;19.10;99.90;;;;;;4993395;28;20159;-95
2022/06/27 11:03:24;;;;;;;6.85;3.80;;;19.10;99.90;;;;;;4992901;28;20081;-94
2022/06/27 11:06:08;;;;;;;7.50;4.00;;;19.10;99.90;;;;;;4989798;28;20117;-95
2022/06/27 11:08:36;;;;;;;6.28;3.85;;;19.10;99.90;;;;;;4975609;28;20042;-94
2022/06/27 11:11:04;;;;;;;6.20;3.70;;;19.20;99.90;;;;;;4991264;28;20426;-92
2022/06/27 11:13:44;;;;;;;6.00;3.60;;;19.20;99.90;;;;;;4993023;28;20060;-93
2022/06/27 11:16:18;;;;;;;6.30;3.20;;;19.30;99.90;;;;;;4994366;28;20380;-94
2022/06/27 11:18:52;;;;;;;5.63;3.40;;;19.30;99.90;;;;;;4993122;28;20509;-94
2022/06/27 11:21:23;;;;;;;6.78;3.85;;;19.40;99.90;;;;;;5008623;28;20080;-94
2022/06/27 11:23:59;;;;;;;6.35;3.33;;;19.30;99.90;;;;;;5014946;28;20049;-95
2022/06/27 11:26:29;;;;;;;6.00;3.17;;;19.20;99.90;;;;;;4997177;28;20129;-94
2022/06/27 11:31:57;;;;;;;5.45;2.90;;;19.20;99.90;;;;;;5010146;28;20450;-94
2022/06/27 11:34:25;;;;;;;5.32;2.78;;;19.10;99.90;;;;;;5009512;28;20041;-92
2022/06/27 11:36:55;;;;;;;5.32;2.85;;;19.20;99.90;;;;;;4986291;28;20198;-86
2022/06/27 11:39:32;;;;;;;6.53;2.80;;;19.20;99.90;;;;;;4973172;28;20050;-90
2022/06/27 11:42:02;;;;;;;5.25;2.95;;;19.20;99.90;;;;;;5003901;28;20044;-91
2022/06/27 11:44:28;;;;;;;5.57;3.17;;;19.20;99.90;;;;;;5007969;28;20191;-92
2022/06/27 11:47:05;;;;;;;5.35;2.90;;;19.30;99.90;;;;;;5000626;28;20042;-88
2022/06/27 11:49:33;;;;;;;6.60;3.42;;;19.20;99.90;;;;;;4988039;28;20081;-91
2022/06/27 11:52:08;;;;;;;6.80;3.63;;;19.20;99.90;;;;;;4986935;28;20054;-92
2022/06/27 11:54:42;;;;;;;6.43;3.80;;;19.20;99.90;;;;;;4990773;28;20430;-93
2022/06/27 11:57:24;;;;;;;6.10;3.53;;;19.10;99.90;;;;;;5015357;28;20133;-93
2022/06/27 11:59:56;;;;;;;6.18;3.78;;;19.00;99.90;;;;;;4992790;28;20069;-92
2022/06/27 12:02:31;;;;;;;6.40;3.53;;;19.00;99.90;;;;;;4994653;28;20043;-93
2022/06/27 12:05:03;;;;;;;6.95;3.30;;;19.00;99.90;;;;;;4987134;28;20125;-91
2022/06/27 12:07:29;;;;;;;6.05;3.38;;;19.10;99.90;;;;;;4975780;28;20737;-94
2022/06/27 12:09:55;;;;;;;6.38;3.70;;;19.10;99.90;;;;;;5003525;28;20171;-93
2022/06/27 12:12:26;;;;;;;6.47;4.25;;;19.10;99.90;;;;;;5003690;28;20042;-92
2022/06/27 12:14:53;;;;;;;6.32;3.70;;;19.10;99.90;;;;;;5008073;28;20895;-91
2022/06/27 12:17:20;;;;;;;6.78;3.60;;;19.20;99.90;;;;;;4992783;28;20128;-92
2022/06/27 12:19:46;;;;;;;7.32;4.55;;;19.30;99.90;;;;;;4991727;28;20045;-92
2022/06/27 12:22:18;;;;;;;6.80;3.90;;;19.40;99.90;;;;;;5004029;28;20399;-92
2022/06/27 12:24:46;;;;;;;7.50;4.68;;;19.50;99.90;;;;;;5006532;28;20493;-92
2022/06/27 12:27:12;;;;;;;6.57;4.35;;;19.50;99.90;;;;;;5013426;28;20088;-91
2022/06/27 12:29:38;;;;;;;8.20;4.25;;;19.50;99.90;;;;;;4989444;28;20434;-90
2022/06/27 12:32:04;;;;;;;6.65;4.45;;;19.60;99.90;;;;;;4991479;28;20065;-92
2022/06/27 12:34:30;;;;;;;8.50;4.55;;;19.60;99.90;;;;;;5009783;28;20046;-92
2022/06/27 12:36:56;;;;;;;8.40;5.05;;;19.50;99.90;;;;;;5009192;28;20053;-91
2022/06/27 12:39:23;;;;;;;8.68;5.88;;;19.50;99.90;;;;;;5009740;28;20482;-91
2022/06/27 12:41:49;;;;;;;8.27;6.10;;;19.50;99.90;;;;;;4990821;28;20060;-90
2022/06/27 12:44:15;;;;;;;8.60;5.72;;;19.40;99.90;;;;;;5008521;28;20088;-90
2022/06/27 12:46:41;;;;;;;8.60;5.65;;;19.40;99.90;;;;;;5008300;28;20050;-91
2022/06/27 12:49:06;;;;;;;8.82;5.68;;;19.40;99.90;;;;;;5007195;28;20057;-91